Hovedside
METAR-TAF:

METAR-TAF

Lufthavner :

Cần Thơ internasjonale lufthavn

Can Tho, Vietnam

breddegrad: 10-05-07N, lengdegrad: 105-42-43E, høyde over havet: 3 m

Gjeldene værobservasjon

Denne rapporten ble laget for 39 minutter siden, klokken 02:00 UTC
Vind 9 kt fra Vest-nordvest
Temperatur 32°C
Luftfuktighet 75%
Trykk 1008 hPa
Sikt 10 km eller mer
Få skyer i en høyde av 1500 ft

METAR: VVCT 140200Z 29009KT 9999 FEW015 32/27 Q1008 NOSIG

Tid: 09:39 (02:39 UTC)

Varsel

Denne rapporten ble laget for 3 timer og 39 minutter siden, klokken 23:00 UTC
Varsel gyldig fra 14. klokken 00 UTC til 14. klokken 24 UTC
Vind 7 kt fra Vest-sørvest
Sikt 10 km eller mer
Spredte skyer i en høyde av 1500 ft
Spredte skyer i en høyde av 4000 ft
Midlertidig
fra 14. klokken 06 UTC til 14. klokken 12 UTC
Sikt: 5000 m
Spredte skyer i en høyde av 1500 ft
Få skyer i en høyde av 1700 ft, Bygeskyer.
torden, regn,

TAF: VVCT 132300Z 1400/1424 25007KT 9999 SCT015 SCT040 TEMPO 1406/1412 5000 TSRA SCT015 FEW017CB

Værobservasjoner og værvarsel for over 4000 flyplasser (METAR- og TAF-rapporter).

Tilgjengelige stasjoner er representert av de røde og gule prikkene på kartet.

Hold musepekeren over prikken for å se navnet på stasjonen.

Klikk så for å se værobservasjoner og -varsler.

For å forandre kartet kan du klikke på den grønne knappen med svart kryss for å zoome inn, på den grønne knappen med strek for å zoome ut, eller på de grønne pilene for å se tilstøtende kart.


METAR-TAF: